createdAt,value
2016-08-02T00:00:20.862Z,1011.56
2016-08-02T00:01:20.768Z,1011.51
2016-08-02T00:02:20.849Z,1011.54
2016-08-02T00:03:20.844Z,1011.54
2016-08-02T00:04:21.002Z,1011.51
2016-08-02T00:05:20.796Z,1011.51
2016-08-02T00:06:20.871Z,1011.52
2016-08-02T00:07:20.852Z,1011.5
2016-08-02T00:08:20.866Z,1011.51
2016-08-02T00:09:20.999Z,1011.5
2016-08-02T00:10:20.995Z,1011.51
2016-08-02T00:11:20.836Z,1011.48
2016-08-02T00:12:20.843Z,1011.49
2016-08-02T00:13:20.930Z,1011.52
2016-08-02T00:14:20.941Z,1011.45
2016-08-02T00:15:20.959Z,1011.43
2016-08-02T00:16:20.868Z,1011.42
2016-08-02T00:17:20.875Z,1011.42
2016-08-02T00:18:20.956Z,1011.41
2016-08-02T00:19:20.889Z,1011.41
2016-08-02T00:20:20.957Z,1011.36
2016-08-02T00:21:20.904Z,1011.37
2016-08-02T00:22:20.975Z,1011.32
2016-08-02T00:23:21.007Z,1011.32
2016-08-02T00:24:20.921Z,1011.26
2016-08-02T00:25:20.927Z,1011.28
2016-08-02T00:26:20.934Z,1011.34
2016-08-02T00:27:20.943Z,1011.39
2016-08-02T00:28:20.950Z,1011.39
2016-08-02T00:29:21.043Z,1011.45
2016-08-02T00:30:21.027Z,1011.43
2016-08-02T00:31:21.014Z,1011.44
2016-08-02T00:32:21.033Z,1011.42
2016-08-02T00:33:21.041Z,1011.42
2016-08-02T00:34:20.988Z,1011.41
2016-08-02T00:35:21.031Z,1011.44
2016-08-02T00:36:21.001Z,1011.41
2016-08-02T00:37:21.007Z,1011.42
2016-08-02T00:38:21.088Z,1011.41
2016-08-02T00:39:21.070Z,1011.42
2016-08-02T00:40:21.106Z,1011.4
2016-08-02T00:41:21.111Z,1011.4
2016-08-02T00:42:21.140Z,1011.39
2016-08-02T00:43:21.045Z,1011.34
2016-08-02T00:44:21.052Z,1011.36
2016-08-02T00:45:21.092Z,1011.33
2016-08-02T00:46:21.066Z,1011.33
2016-08-02T00:47:21.123Z,1011.32
2016-08-02T00:48:21.168Z,1011.3
2016-08-02T00:49:21.128Z,1011.32
2016-08-02T00:50:21.163Z,1011.39
2016-08-02T00:51:21.122Z,1011.41
2016-08-02T00:52:22.286Z,1011.43
2016-08-02T00:53:21.206Z,1011.34
2016-08-02T00:54:21.169Z,1011.32
2016-08-02T00:55:21.211Z,1011.25
2016-08-02T00:56:21.131Z,1011.27
2016-08-02T00:57:22.059Z,1011.35
2016-08-02T00:58:21.161Z,1011.36
2016-08-02T00:59:21.239Z,1011.34
2016-08-02T01:00:21.173Z,1011.36
2016-08-02T01:01:21.191Z,1011.33
2016-08-02T01:02:21.247Z,1011.34
2016-08-02T01:03:21.196Z,1011.3
2016-08-02T01:04:21.184Z,1011.28
2016-08-02T01:05:21.204Z,1011.23
2016-08-02T01:06:21.279Z,1011.19
2016-08-02T01:07:21.214Z,1011.17
2016-08-02T01:08:21.285Z,1011.09
2016-08-02T01:09:21.249Z,1011.07
2016-08-02T01:10:21.287Z,1011.03
2016-08-02T01:11:21.280Z,1011.02
2016-08-02T01:12:21.329Z,1011.03
2016-08-02T01:13:21.270Z,1011.04
2016-08-02T01:14:21.331Z,1011.05
2016-08-02T01:15:21.296Z,1011.03
2016-08-02T01:16:21.260Z,1011.03
2016-08-02T01:17:21.336Z,1011.07
2016-08-02T01:18:21.275Z,1011.06
2016-08-02T01:19:21.340Z,1011.02
2016-08-02T01:20:21.287Z,1011.07
2016-08-02T01:21:21.296Z,1011.03
2016-08-02T01:22:21.302Z,1011.03
2016-08-02T01:23:21.306Z,1011
2016-08-02T01:24:21.314Z,1011.01
2016-08-02T01:25:21.421Z,1011.02
2016-08-02T01:26:21.327Z,1011.02
2016-08-02T01:27:21.360Z,1011.04
2016-08-02T01:28:21.339Z,1011.03
2016-08-02T01:29:21.945Z,1011.02
2016-08-02T01:30:21.355Z,1011.05
2016-08-02T01:31:21.358Z,1011.02
2016-08-02T01:32:21.475Z,1011.02
2016-08-02T01:33:21.390Z,1010.97
2016-08-02T01:34:21.405Z,1010.98
2016-08-02T01:35:21.385Z,1010.95
2016-08-02T01:36:21.406Z,1010.92
2016-08-02T01:37:21.448Z,1010.86
2016-08-02T01:38:21.526Z,1010.87
2016-08-02T01:39:21.412Z,1010.82
2016-08-02T01:40:21.457Z,1010.82
2016-08-02T01:41:21.424Z,1010.81
2016-08-02T01:42:21.430Z,1010.76
2016-08-02T01:43:21.470Z,1010.71
2016-08-02T01:44:21.526Z,1010.74
2016-08-02T01:45:21.551Z,1010.73
2016-08-02T01:46:21.522Z,1010.7
2016-08-02T01:47:21.463Z,1010.72
2016-08-02T01:48:21.468Z,1010.66
2016-08-02T01:49:21.475Z,1010.75
2016-08-02T01:50:21.557Z,1010.72
2016-08-02T01:51:21.535Z,1010.77
2016-08-02T01:52:21.494Z,1010.78
2016-08-02T01:53:21.650Z,1010.76
2016-08-02T01:54:21.508Z,1010.7
2016-08-02T01:55:21.512Z,1010.72
2016-08-02T01:56:21.640Z,1010.71
2016-08-02T01:57:21.594Z,1010.72
2016-08-02T01:58:21.608Z,1010.72
2016-08-02T01:59:21.639Z,1010.71
2016-08-02T02:00:21.547Z,1010.73
2016-08-02T02:01:21.588Z,1010.71
2016-08-02T02:02:21.558Z,1010.68
2016-08-02T02:03:21.563Z,1010.63
2016-08-02T02:04:21.570Z,1010.62
2016-08-02T02:05:21.703Z,1010.66
2016-08-02T02:06:21.584Z,1010.64
2016-08-02T02:07:21.589Z,1010.63
2016-08-02T02:08:21.695Z,1010.59
2016-08-02T02:09:21.603Z,1010.62
2016-08-02T02:10:21.650Z,1010.6
2016-08-02T02:11:21.613Z,1010.59
2016-08-02T02:12:21.670Z,1010.53
2016-08-02T02:13:21.728Z,1010.51
2016-08-02T02:14:21.632Z,1010.52
2016-08-02T02:15:21.638Z,1010.48
2016-08-02T02:16:21.645Z,1010.46
2016-08-02T02:17:21.701Z,1010.43
2016-08-02T02:18:21.658Z,1010.41
2016-08-02T02:19:21.700Z,1010.4
2016-08-02T02:20:21.719Z,1010.38
2016-08-02T02:21:21.731Z,1010.38
2016-08-02T02:22:21.682Z,1010.35
2016-08-02T02:23:21.709Z,1010.34
2016-08-02T02:24:21.777Z,1010.34
2016-08-02T02:25:21.751Z,1010.36
2016-08-02T02:26:21.725Z,1010.36
2016-08-02T02:27:21.779Z,1010.33
2016-08-02T02:28:21.720Z,1010.28
2016-08-02T02:29:22.263Z,1010.29
2016-08-02T02:30:21.759Z,1010.29
2016-08-02T02:31:21.738Z,1010.24
2016-08-02T02:32:21.797Z,1010.24
2016-08-02T02:33:21.815Z,1010.27
2016-08-02T02:34:21.758Z,1010.26
2016-08-02T02:35:21.764Z,1010.25
2016-08-02T02:36:21.865Z,1010.24
2016-08-02T02:37:21.777Z,1010.24
2016-08-02T02:38:21.782Z,1010.21
2016-08-02T02:39:21.843Z,1010.22
2016-08-02T02:40:21.835Z,1010.24
2016-08-02T02:41:21.869Z,1010.21
2016-08-02T02:42:21.822Z,1010.18
2016-08-02T02:43:21.863Z,1010.17
2016-08-02T02:44:21.820Z,1010.14
2016-08-02T02:45:21.926Z,1010.21
2016-08-02T02:46:21.885Z,1010.21
2016-08-02T02:47:21.853Z,1010.24
2016-08-02T02:48:21.898Z,1010.19
2016-08-02T02:49:21.892Z,1010.19
2016-08-02T02:50:21.910Z,1010.15
2016-08-02T02:51:21.925Z,1010.1
2016-08-02T02:52:21.872Z,1010.11
2016-08-02T02:53:21.937Z,1010.11
2016-08-02T02:54:21.884Z,1010.1
2016-08-02T02:55:21.891Z,1010.17
2016-08-02T02:56:22.618Z,1010.18
2016-08-02T02:57:21.910Z,1010.17
2016-08-02T02:58:21.915Z,1010.2
2016-08-02T02:59:21.916Z,1010.16
2016-08-02T03:00:21.923Z,1010.17
2016-08-02T03:01:21.979Z,1010.17
2016-08-02T03:02:21.936Z,1010.11
2016-08-02T03:03:21.965Z,1010.07
2016-08-02T03:04:22.018Z,1010.06
2016-08-02T03:05:21.955Z,1010.05
2016-08-02T03:06:21.974Z,1010.07
2016-08-02T03:07:21.981Z,1010.06
2016-08-02T03:08:22.071Z,1010.1
2016-08-02T03:09:22.014Z,1010.1
2016-08-02T03:10:21.990Z,1010.08
2016-08-02T03:11:22.078Z,1010.11
2016-08-02T03:12:22.074Z,1010.09
2016-08-02T03:13:22.113Z,1010.03
2016-08-02T03:14:22.052Z,1010.03
2016-08-02T03:15:22.104Z,1010.01
2016-08-02T03:16:22.027Z,1009.95
2016-08-02T03:17:22.034Z,1009.94
2016-08-02T03:18:22.077Z,1009.93
2016-08-02T03:19:22.070Z,1009.98
2016-08-02T03:20:22.088Z,1009.97
2016-08-02T03:21:22.090Z,1009.95
2016-08-02T03:22:22.106Z,1009.94
2016-08-02T03:23:22.070Z,1009.91
2016-08-02T03:25:22.085Z,1009.98
2016-08-02T03:26:22.156Z,1010
2016-08-02T03:27:22.178Z,1010.03
2016-08-02T03:28:22.153Z,1010
2016-08-02T03:29:22.193Z,1010.02
2016-08-02T03:30:22.117Z,1010.01
2016-08-02T03:31:22.126Z,1009.97
2016-08-02T03:32:22.130Z,1009.93
2016-08-02T03:33:22.206Z,1009.95
2016-08-02T03:34:22.226Z,1009.91
2016-08-02T03:35:22.198Z,1009.93
2016-08-02T03:36:22.239Z,1009.91
2016-08-02T03:37:22.208Z,1009.89
2016-08-02T03:38:22.172Z,1009.92
2016-08-02T03:39:22.248Z,1009.87
2016-08-02T03:40:22.241Z,1009.86
2016-08-02T03:41:22.186Z,1009.86
2016-08-02T03:42:22.191Z,1009.84
2016-08-02T03:43:22.199Z,1009.83
2016-08-02T03:44:22.250Z,1009.83
2016-08-02T03:45:22.211Z,1009.85
2016-08-02T03:46:22.216Z,1009.84
2016-08-02T03:47:22.274Z,1009.81
2016-08-02T03:48:22.231Z,1009.82
2016-08-02T03:49:22.257Z,1009.84
2016-08-02T03:50:22.334Z,1009.86
2016-08-02T03:51:22.249Z,1009.83
2016-08-02T03:52:22.256Z,1009.81
2016-08-02T03:53:22.262Z,1009.83
2016-08-02T03:54:22.268Z,1009.78
2016-08-02T03:55:22.274Z,1009.73
2016-08-02T03:56:22.279Z,1009.72
2016-08-02T03:57:22.354Z,1009.69
2016-08-02T03:58:22.364Z,1009.73
2016-08-02T03:59:22.300Z,1009.75
2016-08-02T04:00:22.306Z,1009.75
2016-08-02T04:01:22.400Z,1009.75
2016-08-02T04:02:22.375Z,1009.74
2016-08-02T04:03:22.400Z,1009.66
2016-08-02T04:04:22.406Z,1009.67
2016-08-02T04:05:22.364Z,1009.65
2016-08-02T04:06:22.349Z,1009.63
2016-08-02T04:07:22.352Z,1009.56
2016-08-02T04:08:22.411Z,1009.54
2016-08-02T04:09:22.364Z,1009.52
2016-08-02T04:10:22.443Z,1009.48
2016-08-02T04:11:22.376Z,1009.47
2016-08-02T04:12:22.383Z,1009.43
2016-08-02T04:13:22.440Z,1009.52
2016-08-02T04:14:22.445Z,1009.49
2016-08-02T04:15:22.452Z,1009.49
2016-08-02T04:16:22.494Z,1009.49
2016-08-02T04:17:22.440Z,1009.51
2016-08-02T04:18:22.421Z,1009.5
2016-08-02T04:19:22.429Z,1009.45
2016-08-02T04:20:22.442Z,1009.37
2016-08-02T04:21:22.522Z,1009.37
2016-08-02T04:22:22.523Z,1009.35
2016-08-02T04:23:22.547Z,1009.3
2016-08-02T04:25:22.560Z,1009.35
2016-08-02T04:26:22.483Z,1009.37
2016-08-02T04:27:22.574Z,1009.3
2016-08-02T04:28:22.487Z,1009.28
2016-08-02T04:29:22.544Z,1009.27
2016-08-02T04:30:22.580Z,1009.3
2016-08-02T04:31:22.595Z,1009.27
2016-08-02T04:32:22.608Z,1009.24
2016-08-02T04:33:22.566Z,1009.27
2016-08-02T04:34:22.575Z,1009.28
2016-08-02T04:35:22.581Z,1009.26
2016-08-02T04:36:22.632Z,1009.24
2016-08-02T04:37:22.573Z,1009.27
2016-08-02T04:38:22.550Z,1009.28
2016-08-02T04:40:22.574Z,1009.27
2016-08-02T04:41:22.567Z,1009.25
2016-08-02T04:42:22.574Z,1009.27
2016-08-02T04:43:22.582Z,1009.24
2016-08-02T04:44:22.614Z,1009.25
2016-08-02T04:45:22.678Z,1009.26
2016-08-02T04:46:22.687Z,1009.27
2016-08-02T04:47:22.681Z,1009.26
2016-08-02T04:48:22.711Z,1009.25
2016-08-02T04:49:22.673Z,1009.22
2016-08-02T04:50:22.628Z,1009.25
2016-08-02T04:51:22.636Z,1009.28
2016-08-02T04:52:22.736Z,1009.25
2016-08-02T04:53:22.649Z,1009.23
2016-08-02T04:55:22.753Z,1009.25
2016-08-02T04:56:22.667Z,1009.24
2016-08-02T04:57:22.675Z,1009.24
2016-08-02T04:58:22.679Z,1009.25
2016-08-02T04:59:22.687Z,1009.27
2016-08-02T05:00:22.830Z,1009.25
2016-08-02T05:01:22.700Z,1009.23
2016-08-02T05:02:22.706Z,1009.24
2016-08-02T05:03:22.794Z,1009.27
2016-08-02T05:04:22.768Z,1009.29
2016-08-02T05:05:22.771Z,1009.28
2016-08-02T05:06:22.812Z,1009.26
2016-08-02T05:07:22.832Z,1009.24
2016-08-02T05:08:22.781Z,1009.22
2016-08-02T05:10:22.756Z,1009.23
2016-08-02T05:11:22.762Z,1009.21
2016-08-02T05:12:22.852Z,1009.24
2016-08-02T05:13:22.984Z,1009.24
2016-08-02T05:14:22.782Z,1009.22
2016-08-02T05:15:22.789Z,1009.25
2016-08-02T05:16:22.819Z,1009.26
2016-08-02T05:17:22.813Z,1009.23
2016-08-02T05:18:22.896Z,1009.24
2016-08-02T05:19:22.815Z,1009.18
2016-08-02T05:20:22.914Z,1009.21
2016-08-02T05:21:22.878Z,1009.2
2016-08-02T05:22:22.918Z,1009.19
2016-08-02T05:23:22.897Z,1009.24
2016-08-02T05:25:22.903Z,1009.18
2016-08-02T05:26:22.859Z,1009.22
2016-08-02T05:27:22.866Z,1009.23
2016-08-02T05:28:22.887Z,1009.21
2016-08-02T05:29:22.962Z,1009.24
2016-08-02T05:30:22.885Z,1009.22
2016-08-02T05:31:22.892Z,1009.23
2016-08-02T05:32:22.949Z,1009.21
2016-08-02T05:33:22.904Z,1009.19
2016-08-02T05:34:22.938Z,1009.15
2016-08-02T05:35:23.330Z,1009.12
2016-08-02T05:36:22.924Z,1009.15
2016-08-02T05:37:23.025Z,1009.1
2016-08-02T05:38:22.998Z,1009.13
2016-08-02T05:40:22.947Z,1009.13
2016-08-02T05:41:22.957Z,1009.14
2016-08-02T05:42:22.962Z,1009.1
2016-08-02T05:43:22.969Z,1009.14
2016-08-02T05:44:22.975Z,1009.15
2016-08-02T05:45:22.987Z,1009.15
2016-08-02T05:46:22.986Z,1009.16
2016-08-02T05:47:22.993Z,1009.13
2016-08-02T05:48:23.103Z,1009.12
2016-08-02T05:49:23.006Z,1009.18
2016-08-02T05:50:23.064Z,1009.16
2016-08-02T05:51:23.019Z,1009.2
2016-08-02T05:52:23.108Z,1009.23
2016-08-02T05:53:23.031Z,1009.24
2016-08-02T05:55:23.043Z,1009.2
2016-08-02T05:56:23.050Z,1009.22
2016-08-02T05:57:23.094Z,1009.22
2016-08-02T05:58:23.113Z,1009.19
2016-08-02T05:59:23.069Z,1009.15
2016-08-02T06:00:23.077Z,1009.19
2016-08-02T06:01:23.161Z,1009.15
2016-08-02T06:02:23.089Z,1009.19
2016-08-02T06:03:23.102Z,1009.18
2016-08-02T06:04:23.199Z,1009.18
2016-08-02T06:05:23.108Z,1009.16
2016-08-02T06:06:23.161Z,1009.2
2016-08-02T06:07:23.124Z,1009.13
2016-08-02T06:08:23.163Z,1009.13
2016-08-02T06:10:23.228Z,1009.18
2016-08-02T06:11:23.217Z,1009.18
2016-08-02T06:12:23.241Z,1009.16
2016-08-02T06:13:23.160Z,1009.17
2016-08-02T06:14:23.166Z,1009.19
2016-08-02T06:15:23.194Z,1009.16
2016-08-02T06:16:23.180Z,1009.13
2016-08-02T06:17:23.185Z,1009.11
2016-08-02T06:18:23.243Z,1009.1
2016-08-02T06:19:23.248Z,1009.04
2016-08-02T06:20:23.234Z,1009.05
2016-08-02T06:21:23.210Z,1009.1
2016-08-02T06:22:23.218Z,1009.11
2016-08-02T06:23:23.225Z,1009.1
2016-08-02T06:24:23.231Z,1009.11
2016-08-02T06:25:23.239Z,1009.08
2016-08-02T06:26:23.245Z,1009.1
2016-08-02T06:27:23.345Z,1009.07
2016-08-02T06:28:23.258Z,1009.06
2016-08-02T06:29:23.265Z,1009.06
2016-08-02T06:30:23.270Z,1009.07
2016-08-02T06:31:23.277Z,1009.1
2016-08-02T06:32:23.325Z,1009.15
2016-08-02T06:33:23.289Z,1009.09
2016-08-02T06:34:23.295Z,1009.08
2016-08-02T06:35:23.319Z,1009.07
2016-08-02T06:36:23.311Z,1009.05
2016-08-02T06:37:23.315Z,1009.01
2016-08-02T06:38:23.419Z,1009.02
2016-08-02T06:39:23.361Z,1008.93
2016-08-02T06:40:23.336Z,1008.94
2016-08-02T06:41:23.341Z,1008.96
2016-08-02T06:42:23.347Z,1008.96
2016-08-02T06:43:23.355Z,1008.94
2016-08-02T06:44:23.361Z,1008.93
2016-08-02T06:45:23.458Z,1008.93
2016-08-02T06:46:23.375Z,1008.99
2016-08-02T06:47:23.382Z,1009.01
2016-08-02T06:48:23.437Z,1008.95
2016-08-02T06:49:23.483Z,1008.96
2016-08-02T06:50:23.445Z,1008.93
2016-08-02T06:51:23.407Z,1008.92
2016-08-02T06:52:23.453Z,1008.93
2016-08-02T06:53:23.420Z,1008.9
2016-08-02T06:54:23.509Z,1008.92
2016-08-02T06:55:23.431Z,1008.9
2016-08-02T06:56:23.439Z,1008.92
2016-08-02T06:57:23.446Z,1008.94
2016-08-02T06:58:23.502Z,1008.92
2016-08-02T06:59:23.596Z,1008.94
2016-08-02T07:00:23.554Z,1008.96
2016-08-02T07:01:23.544Z,1008.93
2016-08-02T07:02:23.479Z,1008.93
2016-08-02T07:03:23.484Z,1008.96
2016-08-02T07:04:23.490Z,1008.93
2016-08-02T07:05:23.548Z,1008.91
2016-08-02T07:06:23.504Z,1008.94
2016-08-02T07:07:23.510Z,1008.96
2016-08-02T07:08:23.517Z,1008.98
2016-08-02T07:09:23.561Z,1008.95
2016-08-02T07:10:23.530Z,1008.95
2016-08-02T07:11:23.535Z,1008.92
2016-08-02T07:12:23.543Z,1008.97
2016-08-02T07:13:23.552Z,1008.92
2016-08-02T07:14:23.591Z,1008.9
2016-08-02T07:15:23.562Z,1008.89
2016-08-02T07:16:23.569Z,1008.9
2016-08-02T07:17:23.625Z,1008.88
2016-08-02T07:18:23.583Z,1008.86
2016-08-02T07:19:23.588Z,1008.9
2016-08-02T07:20:23.642Z,1008.81
2016-08-02T07:21:23.686Z,1008.85
2016-08-02T07:22:23.692Z,1008.86
2016-08-02T07:23:23.616Z,1008.83
2016-08-02T07:24:23.622Z,1008.87
2016-08-02T07:25:23.626Z,1008.84
2016-08-02T07:26:23.726Z,1008.84
2016-08-02T07:27:23.640Z,1008.85
2016-08-02T07:28:23.645Z,1008.85
2016-08-02T07:29:23.652Z,1008.86
2016-08-02T07:30:23.658Z,1008.85
2016-08-02T07:31:23.752Z,1008.88
2016-08-02T07:32:23.671Z,1008.87
2016-08-02T07:33:23.728Z,1008.9
2016-08-02T07:34:23.684Z,1008.89
2016-08-02T07:35:23.691Z,1008.86
2016-08-02T07:36:23.795Z,1008.87
2016-08-02T07:37:23.704Z,1008.83
2016-08-02T07:38:23.711Z,1008.83
2016-08-02T07:39:23.717Z,1008.87
2016-08-02T07:40:23.782Z,1008.87
2016-08-02T07:41:23.729Z,1008.88
2016-08-02T07:42:23.738Z,1008.88
2016-08-02T07:43:23.743Z,1008.86
2016-08-02T07:44:23.748Z,1008.82
2016-08-02T07:45:23.755Z,1008.81
2016-08-02T07:46:23.762Z,1008.79
2016-08-02T07:47:23.769Z,1008.79
2016-08-02T07:48:23.797Z,1008.76
2016-08-02T07:49:23.853Z,1008.73
2016-08-02T07:50:23.789Z,1008.71
2016-08-02T07:51:23.811Z,1008.7
2016-08-02T07:52:23.852Z,1008.7
2016-08-02T07:53:23.808Z,1008.66
2016-08-02T07:54:23.854Z,1008.69
2016-08-02T07:55:23.842Z,1008.71
2016-08-02T07:56:23.910Z,1008.71
2016-08-02T07:57:23.834Z,1008.71
2016-08-02T07:58:23.890Z,1008.72
2016-08-02T07:59:23.847Z,1008.74
2016-08-02T08:00:23.854Z,1008.74
2016-08-02T08:01:23.876Z,1008.69
2016-08-02T08:02:23.866Z,1008.7
2016-08-02T08:03:23.981Z,1008.66
2016-08-02T08:04:23.880Z,1008.7
2016-08-02T08:05:23.936Z,1008.68
2016-08-02T08:06:23.893Z,1008.71
2016-08-02T08:07:23.901Z,1008.67
2016-08-02T08:08:23.905Z,1008.68
2016-08-02T08:09:23.911Z,1008.72
2016-08-02T08:10:23.983Z,1008.73
2016-08-02T08:11:23.925Z,1008.77
2016-08-02T08:12:23.932Z,1008.74
2016-08-02T08:13:23.938Z,1008.75
2016-08-02T08:14:23.945Z,1008.74
2016-08-02T08:15:23.950Z,1008.69
2016-08-02T08:16:24.008Z,1008.71
2016-08-02T08:17:23.965Z,1008.69
2016-08-02T08:18:23.976Z,1008.71
2016-08-02T08:19:23.976Z,1008.72
2016-08-02T08:20:23.984Z,1008.7
2016-08-02T08:21:23.990Z,1008.77
2016-08-02T08:22:23.996Z,1008.72
2016-08-02T08:23:24.001Z,1008.68
2016-08-02T08:24:24.008Z,1008.65
2016-08-02T08:25:24.018Z,1008.68
2016-08-02T08:26:24.023Z,1008.66
2016-08-02T08:27:24.029Z,1008.62
2016-08-02T08:28:24.035Z,1008.61
2016-08-02T08:29:24.042Z,1008.57
2016-08-02T08:30:24.059Z,1008.57
2016-08-02T08:31:24.054Z,1008.49
2016-08-02T08:32:24.064Z,1008.46
2016-08-02T08:33:24.067Z,1008.42
2016-08-02T08:34:24.079Z,1008.42
2016-08-02T08:35:24.081Z,1008.39
2016-08-02T08:36:24.087Z,1008.41
2016-08-02T08:37:24.095Z,1008.41
2016-08-02T08:38:24.101Z,1008.39
2016-08-02T08:39:24.109Z,1008.46
2016-08-02T08:40:24.114Z,1008.44
2016-08-02T08:41:24.121Z,1008.46
2016-08-02T08:42:24.126Z,1008.43
2016-08-02T08:43:24.134Z,1008.4
2016-08-02T08:44:24.141Z,1008.43
2016-08-02T08:45:24.145Z,1008.38
2016-08-02T08:46:24.153Z,1008.43
2016-08-02T08:47:24.160Z,1008.44
2016-08-02T08:48:24.170Z,1008.47
2016-08-02T08:49:24.173Z,1008.41
2016-08-02T08:50:24.181Z,1008.47
2016-08-02T08:51:24.188Z,1008.44
2016-08-02T08:52:24.194Z,1008.49
2016-08-02T08:53:24.200Z,1008.45
2016-08-02T08:54:24.208Z,1008.39
2016-08-02T08:55:24.214Z,1008.4
2016-08-02T08:56:24.220Z,1008.33
2016-08-02T08:57:24.227Z,1008.33
2016-08-02T08:58:24.235Z,1008.28
2016-08-02T08:59:24.242Z,1008.31
2016-08-02T09:00:24.280Z,1008.29
2016-08-02T09:01:24.253Z,1008.31
2016-08-02T09:02:24.434Z,1008.27
2016-08-02T09:03:24.428Z,1008.28
2016-08-02T09:04:24.447Z,1008.28
2016-08-02T09:05:24.395Z,1008.3
2016-08-02T09:06:24.467Z,1008.29
2016-08-02T09:07:24.443Z,1008.27
2016-08-02T09:08:24.459Z,1008.3
2016-08-02T09:09:24.308Z,1008.28
2016-08-02T09:10:24.313Z,1008.3
2016-08-02T09:11:24.319Z,1008.33
2016-08-02T09:12:24.327Z,1008.32
2016-08-02T09:13:24.438Z,1008.34
2016-08-02T09:14:24.342Z,1008.32
2016-08-02T09:15:24.345Z,1008.34
2016-08-02T09:16:24.351Z,1008.29
2016-08-02T09:17:24.359Z,1008.33
2016-08-02T09:18:24.364Z,1008.32
2016-08-02T09:19:24.370Z,1008.31
2016-08-02T09:20:24.377Z,1008.32
2016-08-02T09:21:24.389Z,1008.26
2016-08-02T09:22:24.423Z,1008.3
2016-08-02T09:23:24.396Z,1008.24
2016-08-02T09:24:24.408Z,1008.19
2016-08-02T09:25:24.413Z,1008.18
2016-08-02T09:26:24.419Z,1008.24
2016-08-02T09:27:24.422Z,1008.23
2016-08-02T09:28:24.429Z,1008.24
2016-08-02T09:29:24.435Z,1008.22
2016-08-02T09:30:24.441Z,1008.21
2016-08-02T09:31:24.448Z,1008.24
2016-08-02T09:32:24.456Z,1008.21
2016-08-02T09:33:24.460Z,1008.24
2016-08-02T09:34:24.474Z,1008.22
2016-08-02T09:35:24.473Z,1008.2
2016-08-02T09:36:24.479Z,1008.21
2016-08-02T09:37:24.488Z,1008.19
2016-08-02T09:38:24.494Z,1008.18
2016-08-02T09:39:24.501Z,1008.17
2016-08-02T09:41:24.512Z,1008.09
2016-08-02T09:42:24.519Z,1008.1
2016-08-02T09:43:24.524Z,1008.11
2016-08-02T09:44:24.531Z,1008.14
2016-08-02T09:45:24.594Z,1008.14
2016-08-02T09:46:24.545Z,1008.11
2016-08-02T09:47:24.550Z,1008.13
2016-08-02T09:48:24.558Z,1008.14
2016-08-02T09:49:24.664Z,1008.13
2016-08-02T09:50:24.578Z,1008.11
2016-08-02T09:51:24.577Z,1008.16
2016-08-02T09:52:24.585Z,1008.15
2016-08-02T09:53:24.595Z,1008.14
2016-08-02T09:54:24.646Z,1008.14
2016-08-02T09:56:24.610Z,1008.15
2016-08-02T09:57:24.617Z,1008.1
2016-08-02T09:58:24.623Z,1008.12
2016-08-02T09:59:24.628Z,1008.16
2016-08-02T10:00:24.687Z,1008.13
2016-08-02T10:01:24.692Z,1008.12
2016-08-02T10:02:24.648Z,1008.09
2016-08-02T10:03:24.655Z,1008.14
2016-08-02T10:04:24.660Z,1008.11
2016-08-02T10:05:24.674Z,1008.09
2016-08-02T10:06:24.674Z,1008.11
2016-08-02T10:07:24.682Z,1008.07
2016-08-02T10:08:24.688Z,1008.08
2016-08-02T10:09:24.692Z,1008.04
2016-08-02T10:11:24.707Z,1008.04
2016-08-02T10:12:24.714Z,1007.99
2016-08-02T10:13:24.721Z,1007.99
2016-08-02T10:14:24.725Z,1008
2016-08-02T10:15:24.733Z,1008.02
2016-08-02T10:16:24.790Z,1007.98
2016-08-02T10:17:24.747Z,1007.94
2016-08-02T10:18:24.753Z,1007.94
2016-08-02T10:19:24.759Z,1007.93
2016-08-02T10:20:24.765Z,1008.02
2016-08-02T10:21:24.772Z,1007.99
2016-08-02T10:22:24.776Z,1008
2016-08-02T10:23:24.786Z,1007.98
2016-08-02T10:24:24.793Z,1007.99
2016-08-02T10:26:24.804Z,1007.97
2016-08-02T10:27:24.810Z,1007.94
2016-08-02T10:28:24.818Z,1007.94
2016-08-02T10:29:24.824Z,1007.97
2016-08-02T10:30:24.832Z,1008.02
2016-08-02T10:31:24.837Z,1008.01
2016-08-02T10:32:24.843Z,1007.97
2016-08-02T10:33:24.850Z,1007.96
2016-08-02T10:34:24.859Z,1007.97
2016-08-02T10:35:24.864Z,1007.97
2016-08-02T10:36:24.870Z,1007.98
2016-08-02T10:37:24.877Z,1007.96
2016-08-02T10:38:24.932Z,1007.95
2016-08-02T10:39:24.890Z,1007.97
2016-08-02T10:41:24.904Z,1007.96
2016-08-02T10:42:24.911Z,1007.95
2016-08-02T10:43:24.917Z,1007.97
2016-08-02T10:44:24.923Z,1008
2016-08-02T10:45:24.929Z,1007.98
2016-08-02T10:46:24.936Z,1007.97
2016-08-02T10:47:24.942Z,1007.94
2016-08-02T10:48:24.950Z,1007.97
2016-08-02T10:49:24.955Z,1007.97
2016-08-02T10:50:24.961Z,1007.97
2016-08-02T10:51:24.969Z,1007.99
2016-08-02T10:52:24.976Z,1008
2016-08-02T10:53:24.982Z,1007.98
2016-08-02T10:54:24.989Z,1007.98
2016-08-02T10:56:25.054Z,1007.99
2016-08-02T10:57:25.007Z,1008
2016-08-02T10:58:25.015Z,1007.99
2016-08-02T10:59:25.022Z,1008.01
2016-08-02T11:00:25.028Z,1008.03
2016-08-02T11:01:25.034Z,1008.02
2016-08-02T11:02:25.041Z,1007.98
2016-08-02T11:03:25.048Z,1008.04
2016-08-02T11:04:25.053Z,1008
2016-08-02T11:05:25.060Z,1008.03
2016-08-02T11:06:25.067Z,1007.99
2016-08-02T11:07:25.124Z,1008.02
2016-08-02T11:08:25.081Z,1007.96
2016-08-02T11:09:25.087Z,1007.95
2016-08-02T11:11:25.099Z,1007.94
2016-08-02T11:12:25.107Z,1007.88
2016-08-02T11:13:25.113Z,1007.85
2016-08-02T11:14:25.122Z,1007.85
2016-08-02T11:15:25.127Z,1007.81
2016-08-02T11:16:25.134Z,1007.83
2016-08-02T11:17:25.189Z,1007.81
2016-08-02T11:18:25.146Z,1007.75
2016-08-02T11:19:25.152Z,1007.83
2016-08-02T11:20:25.159Z,1007.77
2016-08-02T11:21:25.167Z,1007.77
2016-08-02T11:22:25.173Z,1007.79
2016-08-02T11:23:25.182Z,1007.76
2016-08-02T11:24:25.185Z,1007.79
2016-08-02T11:25:25.196Z,1007.74
2016-08-02T11:26:25.199Z,1007.75
2016-08-02T11:27:25.206Z,1007.75
2016-08-02T11:28:25.211Z,1007.77
2016-08-02T11:29:25.219Z,1007.79
2016-08-02T11:30:25.224Z,1007.76
2016-08-02T11:31:25.232Z,1007.77
2016-08-02T11:32:25.238Z,1007.77
2016-08-02T11:33:25.244Z,1007.83
2016-08-02T11:34:25.251Z,1007.76
2016-08-02T11:35:25.259Z,1007.8
2016-08-02T11:36:25.266Z,1007.8
2016-08-02T11:37:25.272Z,1007.79
2016-08-02T11:38:25.280Z,1007.8
2016-08-02T11:39:25.285Z,1007.8
2016-08-02T11:40:25.291Z,1007.79
2016-08-02T11:41:25.298Z,1007.74
2016-08-02T11:42:25.305Z,1007.77
2016-08-02T11:43:25.312Z,1007.77
2016-08-02T11:44:25.318Z,1007.75
2016-08-02T11:45:25.323Z,1007.79
2016-08-02T11:46:25.382Z,1007.81
2016-08-02T11:47:25.339Z,1007.82
2016-08-02T11:48:25.395Z,1007.79
2016-08-02T11:49:25.351Z,1007.76
2016-08-02T11:50:25.358Z,1007.77
2016-08-02T11:51:25.553Z,1007.79
2016-08-02T11:52:25.371Z,1007.76
2016-08-02T11:53:25.379Z,1007.78
2016-08-02T11:54:25.385Z,1007.78
2016-08-02T11:55:25.391Z,1007.82
2016-08-02T11:56:25.398Z,1007.81
2016-08-02T11:57:25.404Z,1007.81
2016-08-02T11:58:25.412Z,1007.78
2016-08-02T11:59:25.467Z,1007.78
2016-08-02T12:00:25.425Z,1007.81
2016-08-02T12:01:25.432Z,1007.83
2016-08-02T12:02:25.437Z,1007.87
2016-08-02T12:03:25.444Z,1007.86
2016-08-02T12:04:25.451Z,1007.85
2016-08-02T12:05:25.457Z,1007.84
2016-08-02T12:06:25.463Z,1007.84
2016-08-02T12:07:25.470Z,1007.85
2016-08-02T12:08:25.477Z,1007.8
2016-08-02T12:09:25.483Z,1007.81
2016-08-02T12:10:25.487Z,1007.78
2016-08-02T12:11:25.494Z,1007.81
2016-08-02T12:12:25.502Z,1007.81
2016-08-02T12:13:25.507Z,1007.82
2016-08-02T12:14:25.513Z,1007.79
2016-08-02T12:15:25.519Z,1007.83
2016-08-02T12:16:25.528Z,1007.83
2016-08-02T12:17:25.534Z,1007.81
2016-08-02T12:18:25.539Z,1007.79
2016-08-02T12:19:25.545Z,1007.79
2016-08-02T12:20:25.552Z,1007.78
2016-08-02T12:21:25.558Z,1007.82
2016-08-02T12:22:25.564Z,1007.83
2016-08-02T12:23:25.570Z,1007.77
2016-08-02T12:24:25.576Z,1007.79